createdAt,value
2023-05-21T00:00:05.229Z,443.60
2023-05-21T00:05:04.527Z,443.60
2023-05-21T00:10:02.927Z,443.60
2023-05-21T00:15:03.030Z,443.60
2023-05-21T00:20:01.318Z,443.60
2023-05-21T00:25:02.534Z,442.70
2023-05-21T00:29:59.774Z,443.60
2023-05-21T00:34:59.004Z,418.30
2023-05-21T00:40:00.294Z,401.60
2023-05-21T00:44:57.403Z,388.50
2023-05-21T00:49:56.643Z,409.30
2023-05-21T00:54:56.877Z,403.90
2023-05-21T00:59:55.123Z,409.80
2023-05-21T01:04:55.358Z,419.00
2023-05-21T01:09:53.588Z,439.20
2023-05-21T01:14:53.831Z,411.80
2023-05-21T01:19:53.118Z,401.90
2023-05-21T01:24:51.340Z,432.00
2023-05-21T01:29:51.589Z,432.00
2023-05-21T01:34:49.792Z,445.20
2023-05-21T01:39:50.030Z,428.60
2023-05-21T01:44:49.237Z,408.70
2023-05-21T01:49:48.480Z,422.40
2023-05-21T01:54:48.698Z,426.50
2023-05-21T01:59:45.926Z,429.80
2023-05-21T02:04:45.133Z,438.40
2023-05-21T02:09:44.420Z,409.40
2023-05-21T02:14:47.656Z,412.00
2023-05-21T02:19:43.839Z,421.40
2023-05-21T02:24:42.048Z,377.20
2023-05-21T02:29:43.278Z,417.50
2023-05-21T02:34:39.487Z,334.90
2023-05-21T02:39:39.755Z,295.40
2023-05-21T02:44:38.993Z,332.00
2023-05-21T02:49:39.251Z,330.40
2023-05-21T02:54:38.503Z,370.30
2023-05-21T02:59:36.770Z,430.10
2023-05-21T03:04:36.028Z,415.70
2023-05-21T03:09:35.282Z,419.50
2023-05-21T03:14:34.549Z,421.30
2023-05-21T03:19:34.812Z,422.80
2023-05-21T03:24:33.098Z,459.90
2023-05-21T03:29:33.392Z,428.10
2023-05-21T03:34:31.656Z,409.70
2023-05-21T03:39:30.907Z,413.70
2023-05-21T03:44:30.168Z,409.00
2023-05-21T03:49:29.470Z,449.10
2023-05-21T03:54:29.715Z,455.30
2023-05-21T03:59:27.927Z,419.80
2023-05-21T04:04:27.199Z,401.30
2023-05-21T04:09:25.473Z,396.40
2023-05-21T04:14:25.766Z,392.40
2023-05-21T04:19:25.000Z,415.80
2023-05-21T04:24:25.284Z,397.40
2023-05-21T04:29:24.536Z,385.60
2023-05-21T04:34:23.769Z,396.30
2023-05-21T04:39:22.060Z,413.80
2023-05-21T04:44:22.303Z,414.50
2023-05-21T04:49:20.535Z,398.40
2023-05-21T04:54:19.799Z,329.40
2023-05-21T04:59:20.075Z,304.90
2023-05-21T05:04:18.270Z,330.40
2023-05-21T05:09:17.489Z,391.10
2023-05-21T05:14:18.740Z,419.60
2023-05-21T05:19:17.045Z,393.50
2023-05-21T05:24:15.127Z,407.60
2023-05-21T05:29:14.460Z,424.30
2023-05-21T05:34:14.694Z,416.90
2023-05-21T05:39:12.902Z,407.40
2023-05-21T05:44:13.140Z,440.50
2023-05-21T05:49:11.362Z,432.50
2023-05-21T05:54:11.602Z,411.50
2023-05-21T05:59:12.812Z,410.90
2023-05-21T06:04:09.021Z,413.30
2023-05-21T06:09:08.294Z,413.30
2023-05-21T06:14:08.540Z,428.70
2023-05-21T06:19:06.892Z,428.70
2023-05-21T06:24:08.094Z,526.20
2023-05-21T06:29:05.346Z,407.30
2023-05-21T06:34:04.703Z,401.50
2023-05-21T06:39:04.739Z,424.20
2023-05-21T06:44:02.963Z,385.60
2023-05-21T06:49:02.180Z,370.80
2023-05-21T06:54:01.416Z,382.90
2023-05-21T06:59:00.675Z,387.10
2023-05-21T07:03:59.869Z,399.20
2023-05-21T07:09:01.093Z,389.80
2023-05-21T07:13:58.305Z,392.40
2023-05-21T07:18:57.590Z,408.00
2023-05-21T07:23:56.867Z,408.00
2023-05-21T07:28:56.117Z,395.30
2023-05-21T07:33:56.343Z,364.30
2023-05-21T07:38:56.625Z,348.80
2023-05-21T07:43:53.898Z,348.80
2023-05-21T07:48:53.155Z,348.80
2023-05-21T07:53:54.465Z,348.80
2023-05-21T07:58:51.560Z,348.80
2023-05-21T08:03:50.950Z,348.80
2023-05-21T08:08:51.068Z,348.80
2023-05-21T08:13:49.285Z,348.80
2023-05-21T08:18:48.560Z,348.80
2023-05-21T08:23:47.718Z,348.80
2023-05-21T08:28:46.978Z,348.80
2023-05-21T08:33:47.170Z,348.80
2023-05-21T08:38:46.368Z,348.80
2023-05-21T08:43:44.610Z,348.80
2023-05-21T08:48:43.801Z,348.80
2023-05-21T08:53:43.025Z,348.80
2023-05-21T08:58:43.240Z,348.80
2023-05-21T09:03:41.500Z,348.80
2023-05-21T09:08:42.696Z,348.80
2023-05-21T09:13:39.915Z,348.80
2023-05-21T09:18:40.147Z,348.80
2023-05-21T09:23:40.375Z,348.80
2023-05-21T09:28:37.570Z,348.80
2023-05-21T09:33:36.824Z,348.80
2023-05-21T09:38:36.084Z,348.80
2023-05-21T09:43:37.369Z,348.80
2023-05-21T09:48:34.647Z,348.80
2023-05-21T09:53:33.929Z,348.80
2023-05-21T09:58:33.184Z,348.80
2023-05-21T10:03:32.470Z,348.80
2023-05-21T10:08:31.592Z,348.80
2023-05-21T10:13:30.839Z,348.80
2023-05-21T10:18:34.198Z,348.80
2023-05-21T10:23:30.221Z,348.80
2023-05-21T10:28:28.426Z,348.80
2023-05-21T10:33:27.738Z,348.80
2023-05-21T10:38:27.992Z,348.80
2023-05-21T10:43:26.280Z,348.80
2023-05-21T10:48:27.572Z,348.80
2023-05-21T10:53:24.872Z,348.80
2023-05-21T10:58:28.014Z,348.80
2023-05-21T11:03:24.580Z,348.80
2023-05-21T11:08:23.611Z,348.80
2023-05-21T11:13:21.954Z,348.80
2023-05-21T11:18:21.212Z,348.80
2023-05-21T11:23:20.489Z,348.80
2023-05-21T11:28:18.682Z,348.80
2023-05-21T11:33:19.951Z,348.80
2023-05-21T11:38:19.183Z,348.80
2023-05-21T11:43:18.474Z,356.70
2023-05-21T11:48:17.736Z,347.90
2023-05-21T11:53:14.998Z,353.20
2023-05-21T11:58:15.268Z,347.30
2023-05-21T12:03:15.600Z,440.40
2023-05-21T12:08:13.675Z,405.00
2023-05-21T12:13:13.931Z,408.70
2023-05-21T12:18:12.232Z,440.60
2023-05-21T12:23:11.471Z,410.60
2023-05-21T12:28:10.712Z,426.50
2023-05-21T12:33:10.998Z,416.90
2023-05-21T12:38:09.277Z,424.30
2023-05-21T12:43:10.528Z,435.90
2023-05-21T12:48:07.801Z,418.70
2023-05-21T12:53:07.035Z,425.50
2023-05-21T12:58:06.443Z,414.20
2023-05-21T13:03:05.721Z,421.10
2023-05-21T13:08:04.961Z,403.90
2023-05-21T13:13:04.075Z,414.90
2023-05-21T13:18:03.372Z,394.90
2023-05-21T13:23:04.660Z,406.90
2023-05-21T13:28:01.856Z,410.40
2023-05-21T13:33:01.245Z,413.80
2023-05-21T13:38:00.355Z,442.80
2023-05-21T13:42:59.601Z,368.70
2023-05-21T13:47:58.887Z,383.40
2023-05-21T13:52:59.085Z,407.20
2023-05-21T13:57:57.328Z,383.70
2023-05-21T14:02:56.709Z,368.00
2023-05-21T14:07:55.767Z,409.30
2023-05-21T14:13:01.635Z,451.10
2023-05-21T14:17:54.353Z,355.00
2023-05-21T14:22:53.582Z,418.40
2023-05-21T14:27:51.822Z,407.40
2023-05-21T14:32:52.108Z,398.20
2023-05-21T14:37:51.381Z,408.90
2023-05-21T14:42:50.602Z,390.50
2023-05-21T14:47:48.958Z,421.20
2023-05-21T14:52:48.019Z,402.80
2023-05-21T14:57:49.252Z,406.80
2023-05-21T15:02:47.623Z,411.00
2023-05-21T15:07:46.716Z,412.50
2023-05-21T15:12:47.128Z,373.00
2023-05-21T15:17:45.307Z,417.70
2023-05-21T15:22:45.319Z,410.40
2023-05-21T15:27:43.594Z,427.30
2023-05-21T15:32:42.854Z,388.60
2023-05-21T15:37:43.409Z,423.60
2023-05-21T15:42:41.364Z,405.80
2023-05-21T15:47:42.592Z,462.70
2023-05-21T15:52:40.986Z,414.00
2023-05-21T15:57:39.230Z,411.30
2023-05-21T16:02:38.597Z,415.20
2023-05-21T16:07:38.672Z,385.10
2023-05-21T16:12:36.817Z,413.60
2023-05-21T16:17:36.171Z,405.30
2023-05-21T16:22:36.299Z,407.70
2023-05-21T16:27:34.672Z,429.80
2023-05-21T16:32:35.013Z,363.30
2023-05-21T16:37:33.139Z,406.80
2023-05-21T16:42:32.382Z,390.10
2023-05-21T16:47:31.659Z,387.80
2023-05-21T16:52:31.987Z,391.70
2023-05-21T16:57:31.131Z,417.70
2023-05-21T17:02:30.084Z,410.70
2023-05-21T17:07:28.512Z,391.90
2023-05-21T17:12:27.644Z,402.80
2023-05-21T17:17:27.986Z,398.70
2023-05-21T17:22:26.206Z,413.80
2023-05-21T17:27:25.374Z,408.50
2023-05-21T17:32:24.535Z,411.70
2023-05-21T17:37:23.733Z,419.10
2023-05-21T17:42:22.942Z,417.60
2023-05-21T17:47:24.285Z,396.00
2023-05-21T17:52:23.495Z,418.50
2023-05-21T17:57:20.686Z,423.80
2023-05-21T18:02:20.953Z,426.60
2023-05-21T18:07:19.187Z,407.00
2023-05-21T18:12:18.442Z,426.10
2023-05-21T18:17:18.715Z,412.20
2023-05-21T18:22:17.928Z,400.70
2023-05-21T18:27:16.212Z,442.20
2023-05-21T18:32:17.699Z,414.20
2023-05-21T18:37:14.828Z,410.00
2023-05-21T18:42:15.116Z,410.30
2023-05-21T18:47:15.416Z,424.20
2023-05-21T18:52:12.749Z,421.40
2023-05-21T18:57:11.812Z,421.00
2023-05-21T19:02:11.241Z,413.40
2023-05-21T19:07:10.438Z,413.10
2023-05-21T19:12:09.711Z,440.40
2023-05-21T19:17:09.012Z,400.10
2023-05-21T19:22:09.311Z,404.20
2023-05-21T19:27:08.592Z,417.90
2023-05-21T19:32:07.882Z,353.40
2023-05-21T19:37:07.175Z,397.00
2023-05-21T19:42:06.434Z,315.10
2023-05-21T19:47:04.753Z,399.80
2023-05-21T19:52:04.056Z,417.00
2023-05-21T19:57:05.281Z,413.60
2023-05-21T20:02:03.525Z,396.40
2023-05-21T20:07:01.832Z,383.40
2023-05-21T20:12:02.102Z,391.00
2023-05-21T20:17:00.513Z,410.50
2023-05-21T20:22:00.147Z,340.90
2023-05-21T20:26:58.791Z,401.40
2023-05-21T20:31:59.042Z,412.10
2023-05-21T20:36:58.380Z,444.20
2023-05-21T20:41:57.376Z,430.70
2023-05-21T20:46:55.557Z,399.10
2023-05-21T20:51:55.756Z,410.00
2023-05-21T20:56:53.990Z,407.00
2023-05-21T21:01:52.822Z,409.50
2023-05-21T21:06:53.891Z,407.50
2023-05-21T21:11:52.147Z,407.20
2023-05-21T21:16:50.386Z,424.10
2023-05-21T21:21:49.797Z,452.50
2023-05-21T21:26:48.843Z,464.80
2023-05-21T21:31:49.086Z,468.70
2023-05-21T21:36:47.296Z,446.40
2023-05-21T21:41:48.547Z,434.50
2023-05-21T21:46:45.816Z,427.80
2023-05-21T21:51:46.098Z,423.90
2023-05-21T21:56:44.411Z,429.10
2023-05-21T22:01:43.675Z,425.20
2023-05-21T22:06:44.045Z,400.20
2023-05-21T22:11:43.291Z,400.20
2023-05-21T22:16:41.658Z,400.20
2023-05-21T22:21:41.752Z,400.20
2023-05-21T22:26:39.941Z,400.20
2023-05-21T22:31:39.147Z,400.20
2023-05-21T22:36:38.339Z,400.20
2023-05-21T22:41:37.572Z,400.20
2023-05-21T22:46:37.891Z,400.20
2023-05-21T22:51:36.245Z,400.30
2023-05-21T22:56:35.453Z,401.80
2023-05-21T23:01:34.775Z,401.80
2023-05-21T23:06:35.066Z,401.00
2023-05-21T23:11:35.346Z,399.40
2023-05-21T23:16:31.670Z,399.40
2023-05-21T23:21:33.003Z,399.80
2023-05-21T23:26:31.243Z,401.30
2023-05-21T23:31:29.588Z,399.00
2023-05-21T23:36:29.885Z,399.00
2023-05-21T23:41:29.174Z,399.00
2023-05-21T23:46:28.415Z,408.90
2023-05-21T23:51:27.702Z,408.90
2023-05-21T23:56:27.981Z,408.90
